createdAt,value
2019-02-28T00:00:56.188Z,21.70
2019-02-28T00:03:26.176Z,20.20
2019-02-28T00:05:55.542Z,21.80
2019-02-28T00:08:24.199Z,22.33
2019-02-28T00:10:52.886Z,18.80
2019-02-28T00:13:22.452Z,21.37
2019-02-28T00:15:51.305Z,20.70
2019-02-28T00:18:20.025Z,18.40
2019-02-28T00:20:48.711Z,21.30
2019-02-28T00:23:19.208Z,19.33
2019-02-28T00:25:50.732Z,19.57
2019-02-28T00:28:19.526Z,18.17
2019-02-28T00:30:48.268Z,18.57
2019-02-28T00:33:16.960Z,18.87
2019-02-28T00:35:45.679Z,18.10
2019-02-28T00:38:14.397Z,19.33
2019-02-28T00:40:43.137Z,19.10
2019-02-28T00:43:11.856Z,20.67
2019-02-28T00:45:43.260Z,18.33
2019-02-28T00:48:11.949Z,18.57
2019-02-28T00:50:40.564Z,18.23
2019-02-28T00:53:09.214Z,19.90
2019-02-28T00:55:38.037Z,18.80
2019-02-28T00:58:06.753Z,19.50
2019-02-28T01:00:37.067Z,17.70
2019-02-28T01:03:05.839Z,17.93
2019-02-28T01:05:36.642Z,19.57
2019-02-28T01:08:04.966Z,18.67
2019-02-28T01:10:38.824Z,17.43
2019-02-28T01:13:03.978Z,17.00
2019-02-28T01:15:35.602Z,18.07
2019-02-28T01:18:04.332Z,18.00
2019-02-28T01:20:33.059Z,17.67
2019-02-28T01:23:01.770Z,16.27
2019-02-28T01:25:30.502Z,17.13
2019-02-28T01:28:00.356Z,14.67
2019-02-28T01:30:29.105Z,17.77
2019-02-28T01:32:57.665Z,17.60
2019-02-28T01:35:30.770Z,16.07
2019-02-28T01:37:59.499Z,16.40
2019-02-28T01:40:29.620Z,19.13
2019-02-28T01:42:58.329Z,17.33
2019-02-28T01:45:27.039Z,17.67
2019-02-28T01:47:55.671Z,17.53
2019-02-28T01:50:24.313Z,17.87
2019-02-28T01:52:52.976Z,19.27
2019-02-28T01:55:21.550Z,17.47
2019-02-28T01:57:50.309Z,17.37
2019-02-28T02:00:19.304Z,15.23
2019-02-28T02:02:47.950Z,16.03
2019-02-28T02:05:17.291Z,17.07
2019-02-28T02:07:46.613Z,15.73
2019-02-28T02:10:21.772Z,15.17
2019-02-28T02:12:51.381Z,15.67
2019-02-28T02:15:20.621Z,15.63
2019-02-28T02:17:49.443Z,16.47
2019-02-28T02:20:18.210Z,15.43
2019-02-28T02:22:46.956Z,15.67
2019-02-28T02:25:15.648Z,15.70
2019-02-28T02:27:44.362Z,15.67
2019-02-28T02:30:21.291Z,15.83
2019-02-28T02:32:50.066Z,16.27
2019-02-28T02:35:18.819Z,15.93
2019-02-28T02:37:47.521Z,13.90
2019-02-28T02:40:16.957Z,16.10
2019-02-28T02:42:48.631Z,14.43
2019-02-28T02:45:16.057Z,14.70
2019-02-28T02:47:44.766Z,13.87
2019-02-28T02:50:14.586Z,14.33
2019-02-28T02:52:43.924Z,14.43
2019-02-28T02:55:13.420Z,15.63
2019-02-28T02:57:42.338Z,14.97
2019-02-28T03:00:15.157Z,14.50
2019-02-28T03:02:44.039Z,13.23
2019-02-28T03:05:12.848Z,14.07
2019-02-28T03:07:45.301Z,13.17
2019-02-28T03:10:18.036Z,14.47
2019-02-28T03:12:47.852Z,16.03
2019-02-28T03:15:24.779Z,15.03
2019-02-28T03:17:48.782Z,15.17
2019-02-28T03:20:17.854Z,15.13
2019-02-28T03:22:46.850Z,14.23
2019-02-28T03:25:18.659Z,14.53
2019-02-28T03:27:47.313Z,14.63
2019-02-28T03:30:28.936Z,14.50
2019-02-28T03:32:48.543Z,14.10
2019-02-28T03:35:17.248Z,14.17
2019-02-28T03:37:45.908Z,14.40
2019-02-28T03:40:15.223Z,14.20
2019-02-28T03:42:46.647Z,15.37
2019-02-28T03:45:18.485Z,13.37
2019-02-28T03:47:47.610Z,14.73
2019-02-28T03:50:16.289Z,16.17
2019-02-28T03:52:45.304Z,14.70
2019-02-28T03:55:17.613Z,14.40
2019-02-28T03:57:46.261Z,13.50
2019-02-28T04:00:20.086Z,13.13
2019-02-28T04:02:56.644Z,13.73
2019-02-28T04:05:26.453Z,11.97
2019-02-28T04:07:53.500Z,12.87
2019-02-28T04:10:22.093Z,13.47
2019-02-28T04:12:50.106Z,12.53
2019-02-28T04:15:20.984Z,13.60
2019-02-28T04:17:49.658Z,12.00
2019-02-28T04:20:18.495Z,14.47
2019-02-28T04:22:50.216Z,13.70
2019-02-28T04:25:22.951Z,12.67
2019-02-28T04:27:49.112Z,13.83
2019-02-28T04:30:17.814Z,12.33
2019-02-28T04:32:46.446Z,12.37
2019-02-28T04:35:16.296Z,11.67
2019-02-28T04:37:47.041Z,11.90
2019-02-28T04:40:19.188Z,11.63
2019-02-28T04:42:47.793Z,10.70
2019-02-28T04:45:16.442Z,10.57
2019-02-28T04:47:45.061Z,11.63
2019-02-28T04:50:14.023Z,12.03
2019-02-28T04:52:47.115Z,11.07
2019-02-28T04:55:12.981Z,12.00
2019-02-28T04:57:41.544Z,10.33
2019-02-28T05:00:16.102Z,10.93
2019-02-28T05:02:44.750Z,10.93
2019-02-28T05:05:14.154Z,11.37
2019-02-28T05:07:42.905Z,11.37
2019-02-28T05:10:12.523Z,11.60
2019-02-28T05:12:41.339Z,11.47
2019-02-28T05:15:12.524Z,10.10
2019-02-28T05:17:41.241Z,11.37
2019-02-28T05:20:12.199Z,10.73
2019-02-28T05:22:41.201Z,11.27
2019-02-28T05:25:10.935Z,11.20
2019-02-28T05:27:41.115Z,10.30
2019-02-28T05:30:19.433Z,10.67
2019-02-28T05:32:47.506Z,11.20
2019-02-28T05:35:16.302Z,10.90
2019-02-28T05:37:48.258Z,11.27
2019-02-28T05:40:19.161Z,10.53
2019-02-28T05:42:47.787Z,11.17
2019-02-28T05:45:16.525Z,10.13
2019-02-28T05:47:47.184Z,11.30
2019-02-28T05:50:17.012Z,9.53
2019-02-28T05:52:45.989Z,11.70
2019-02-28T05:55:14.619Z,10.90
2019-02-28T05:57:44.667Z,11.73
2019-02-28T06:00:16.970Z,9.93
2019-02-28T06:02:45.655Z,11.60
2019-02-28T06:05:14.339Z,11.57
2019-02-28T06:07:43.050Z,13.10
2019-02-28T06:10:13.156Z,11.27
2019-02-28T06:12:43.845Z,11.77
2019-02-28T06:15:14.668Z,11.47
2019-02-28T06:17:43.383Z,12.30
2019-02-28T06:20:16.416Z,12.87
2019-02-28T06:22:43.322Z,10.13
2019-02-28T06:25:17.871Z,12.77
2019-02-28T06:27:49.021Z,11.10
2019-02-28T06:30:15.346Z,11.97
2019-02-28T06:32:44.155Z,11.53
2019-02-28T06:35:16.112Z,12.20
2019-02-28T06:37:45.847Z,10.60
2019-02-28T06:40:15.847Z,12.70
2019-02-28T06:42:46.635Z,11.87
2019-02-28T06:45:19.783Z,12.67
2019-02-28T06:47:49.989Z,12.30
2019-02-28T06:50:18.912Z,12.60
2019-02-28T06:52:47.555Z,11.70
2019-02-28T06:55:20.646Z,11.37
2019-02-28T06:57:49.364Z,12.70
2019-02-28T07:00:18.564Z,13.27
2019-02-28T07:02:47.358Z,13.63
2019-02-28T07:05:16.055Z,11.93
2019-02-28T07:07:45.907Z,10.13
2019-02-28T07:10:18.734Z,12.60
2019-02-28T07:12:47.450Z,12.00
2019-02-28T07:15:16.277Z,11.70
2019-02-28T07:17:46.590Z,11.03
2019-02-28T07:20:19.053Z,12.97
2019-02-28T07:22:47.701Z,11.13
2019-02-28T07:25:16.417Z,12.63
2019-02-28T07:27:45.109Z,12.20
2019-02-28T07:30:19.003Z,12.07
2019-02-28T07:32:48.229Z,11.80
2019-02-28T07:35:16.951Z,12.37
2019-02-28T07:37:45.667Z,12.73
2019-02-28T07:40:17.374Z,12.57
2019-02-28T07:42:46.264Z,12.07
2019-02-28T07:45:16.060Z,12.17
2019-02-28T07:47:44.977Z,12.53
2019-02-28T07:50:14.929Z,14.13
2019-02-28T07:52:43.594Z,13.50
2019-02-28T07:55:14.579Z,13.40
2019-02-28T07:57:43.189Z,12.30
2019-02-28T08:00:19.965Z,13.03
2019-02-28T08:02:48.782Z,12.30
2019-02-28T08:05:17.464Z,13.70
2019-02-28T08:07:50.928Z,13.57
2019-02-28T08:10:31.131Z,14.83
2019-02-28T08:13:03.079Z,14.03
2019-02-28T08:15:30.574Z,13.33
2019-02-28T08:17:59.287Z,14.53
2019-02-28T08:20:30.662Z,12.23
2019-02-28T08:22:58.330Z,15.10
2019-02-28T08:25:27.100Z,14.67
2019-02-28T08:27:58.986Z,16.97
2019-02-28T08:30:30.506Z,16.77
2019-02-28T08:32:59.089Z,16.07
2019-02-28T08:35:33.973Z,15.13
2019-02-28T08:37:58.105Z,17.43
2019-02-28T08:40:27.920Z,15.87
2019-02-28T08:42:59.286Z,18.67
2019-02-28T08:45:32.759Z,17.43
2019-02-28T08:47:58.354Z,19.10
2019-02-28T08:50:27.505Z,20.60
2019-02-28T08:52:59.078Z,18.33
2019-02-28T08:55:29.084Z,21.30
2019-02-28T08:58:05.101Z,19.30
2019-02-28T09:00:32.566Z,19.67
2019-02-28T09:03:00.700Z,20.20
2019-02-28T09:05:30.148Z,18.27
2019-02-28T09:07:59.060Z,23.03
2019-02-28T09:10:27.817Z,20.83
2019-02-28T09:12:56.540Z,20.00
2019-02-28T09:15:30.022Z,21.30
2019-02-28T09:17:59.338Z,21.63
2019-02-28T09:20:25.965Z,20.53
2019-02-28T09:22:54.694Z,24.40
2019-02-28T09:25:24.491Z,21.10
2019-02-28T09:27:53.209Z,21.37
2019-02-28T09:30:29.690Z,19.93
2019-02-28T09:33:02.359Z,20.93
2019-02-28T09:35:31.093Z,21.27
2019-02-28T09:38:03.259Z,19.10
2019-02-28T09:40:30.604Z,21.90
2019-02-28T09:42:59.390Z,21.20
2019-02-28T09:45:31.915Z,24.20
2019-02-28T09:48:02.159Z,19.83
2019-02-28T09:50:33.031Z,19.37
2019-02-28T09:53:01.391Z,21.53
2019-02-28T09:55:34.323Z,20.57
2019-02-28T09:58:00.501Z,20.70
2019-02-28T10:00:30.237Z,21.10
2019-02-28T10:02:58.910Z,21.13
2019-02-28T10:05:27.640Z,20.27
2019-02-28T10:08:01.715Z,20.87
2019-02-28T10:10:33.404Z,20.60
2019-02-28T10:13:02.045Z,22.63
2019-02-28T10:15:30.833Z,22.20
2019-02-28T10:18:00.812Z,16.73
2019-02-28T10:20:31.667Z,23.30
2019-02-28T10:23:00.371Z,21.77
2019-02-28T10:25:29.046Z,21.13
2019-02-28T10:28:01.956Z,20.40
2019-02-28T10:30:32.309Z,17.23
2019-02-28T10:32:59.563Z,20.37
2019-02-28T10:35:28.328Z,20.90
2019-02-28T10:37:58.427Z,21.30
2019-02-28T10:40:29.258Z,21.70
2019-02-28T10:42:58.019Z,21.07
2019-02-28T10:45:27.189Z,23.40
2019-02-28T10:47:55.889Z,22.83
2019-02-28T10:50:33.347Z,20.60
2019-02-28T10:53:04.095Z,21.07
2019-02-28T10:55:30.469Z,22.37
2019-02-28T10:58:00.346Z,19.23
2019-02-28T11:00:34.328Z,21.30
2019-02-28T11:03:03.032Z,21.93
2019-02-28T11:05:39.220Z,19.90
2019-02-28T11:08:09.805Z,22.53
2019-02-28T11:10:40.778Z,19.03
2019-02-28T11:13:15.508Z,22.50
2019-02-28T11:15:47.908Z,21.33
2019-02-28T11:18:15.186Z,25.30
2019-02-28T11:20:43.890Z,19.50
2019-02-28T11:23:15.023Z,23.37
2019-02-28T11:25:43.552Z,22.27
2019-02-28T11:28:12.873Z,21.27
2019-02-28T11:30:44.641Z,22.33
2019-02-28T11:33:13.084Z,22.90
2019-02-28T11:35:41.703Z,20.77
2019-02-28T11:38:10.456Z,23.07
2019-02-28T11:40:40.475Z,25.63
2019-02-28T11:43:09.601Z,24.73
2019-02-28T11:45:40.430Z,23.33
2019-02-28T11:48:20.109Z,20.67
2019-02-28T11:50:47.963Z,21.40
2019-02-28T11:53:16.642Z,25.20
2019-02-28T11:55:45.304Z,24.40
2019-02-28T11:58:17.699Z,21.47
2019-02-28T12:00:46.104Z,25.03
2019-02-28T12:03:14.820Z,23.90
2019-02-28T12:05:43.643Z,22.73
2019-02-28T12:08:12.389Z,22.77
2019-02-28T12:10:40.980Z,24.83
2019-02-28T12:13:09.997Z,20.73
2019-02-28T12:15:40.160Z,21.87
2019-02-28T12:18:08.851Z,16.97
2019-02-28T12:20:37.574Z,19.70
2019-02-28T12:23:06.378Z,17.73
2019-02-28T12:25:35.084Z,20.60
2019-02-28T12:28:06.494Z,22.93
2019-02-28T12:30:35.470Z,23.80
2019-02-28T12:33:04.358Z,20.07
2019-02-28T12:35:37.471Z,21.40
2019-02-28T12:38:03.753Z,19.23
2019-02-28T12:40:34.584Z,19.07
2019-02-28T12:43:08.654Z,22.43
2019-02-28T12:45:38.394Z,21.73
2019-02-28T12:48:07.192Z,18.63
2019-02-28T12:50:35.905Z,23.53
2019-02-28T12:53:04.803Z,19.60
2019-02-28T12:55:35.421Z,21.53
2019-02-28T12:58:04.031Z,24.77
2019-02-28T13:00:43.870Z,22.67
2019-02-28T13:03:12.679Z,21.57
2019-02-28T13:05:41.428Z,20.63
2019-02-28T13:08:10.086Z,20.10
2019-02-28T13:10:38.804Z,21.33
2019-02-28T13:13:07.927Z,24.00
2019-02-28T13:15:36.795Z,23.07
2019-02-28T13:18:09.151Z,22.00
2019-02-28T13:20:38.106Z,22.17
2019-02-28T13:23:07.683Z,24.93
2019-02-28T13:25:36.427Z,20.90
2019-02-28T13:28:07.200Z,24.07
2019-02-28T13:30:35.878Z,26.43
2019-02-28T13:33:04.630Z,23.03
2019-02-28T13:35:35.208Z,25.57
2019-02-28T13:38:04.142Z,22.93
2019-02-28T13:40:32.862Z,23.90
2019-02-28T13:43:01.965Z,24.10
2019-02-28T13:45:30.820Z,25.83
2019-02-28T13:47:59.543Z,23.43
2019-02-28T13:50:37.709Z,25.67
2019-02-28T13:53:18.256Z,21.17
2019-02-28T13:55:40.703Z,23.67
2019-02-28T13:58:09.501Z,24.13
2019-02-28T14:00:43.918Z,26.47
2019-02-28T14:03:13.198Z,25.90
2019-02-28T14:05:41.953Z,26.30
2019-02-28T14:08:12.044Z,22.83
2019-02-28T14:10:41.604Z,23.80
2019-02-28T14:13:10.318Z,24.80
2019-02-28T14:15:44.120Z,22.43
2019-02-28T14:18:17.039Z,23.87
2019-02-28T14:20:45.866Z,25.40
2019-02-28T14:23:20.145Z,24.30
2019-02-28T14:25:44.863Z,25.63
2019-02-28T14:28:13.546Z,24.63
2019-02-28T14:30:42.236Z,26.87
2019-02-28T14:33:10.990Z,24.73
2019-02-28T14:35:39.713Z,26.97
2019-02-28T14:38:08.420Z,26.57
2019-02-28T14:40:37.080Z,27.93
2019-02-28T14:43:07.422Z,27.60
2019-02-28T14:45:42.912Z,30.30
2019-02-28T14:48:11.415Z,26.53
2019-02-28T14:50:40.316Z,27.67
2019-02-28T14:53:13.082Z,25.23
2019-02-28T14:55:39.599Z,30.00
2019-02-28T14:58:08.423Z,31.77
2019-02-28T15:00:39.044Z,27.43
2019-02-28T15:03:08.025Z,25.10
2019-02-28T15:05:39.520Z,29.50
2019-02-28T15:08:08.265Z,32.10
2019-02-28T15:10:37.036Z,31.43
2019-02-28T15:13:06.245Z,30.67
2019-02-28T15:15:36.245Z,34.63
2019-02-28T15:18:05.746Z,28.17
2019-02-28T15:20:34.411Z,30.83
2019-02-28T15:23:03.453Z,32.70
2019-02-28T15:25:32.128Z,33.43
2019-02-28T15:28:01.145Z,33.23
2019-02-28T15:30:35.079Z,35.27
2019-02-28T15:33:03.881Z,39.30
2019-02-28T15:35:33.011Z,34.67
2019-02-28T15:38:01.701Z,33.83
2019-02-28T15:40:45.226Z,33.90
2019-02-28T15:43:18.262Z,32.00
2019-02-28T15:45:45.732Z,41.33
2019-02-28T15:48:14.542Z,37.00
2019-02-28T15:50:43.571Z,35.57
2019-02-28T15:53:15.047Z,34.87
2019-02-28T15:55:42.799Z,36.47
2019-02-28T15:58:11.799Z,32.23
2019-02-28T16:00:40.743Z,35.87
2019-02-28T16:03:09.582Z,35.90
2019-02-28T16:05:42.459Z,37.93
2019-02-28T16:08:10.432Z,35.17
2019-02-28T16:10:39.247Z,34.03
2019-02-28T16:13:08.061Z,30.60
2019-02-28T16:15:36.765Z,32.73
2019-02-28T16:18:08.728Z,36.40
2019-02-28T16:20:38.219Z,29.57
2019-02-28T16:23:06.847Z,32.67
2019-02-28T16:25:40.019Z,32.43
2019-02-28T16:28:09.231Z,28.43
2019-02-28T16:30:39.859Z,30.93
2019-02-28T16:33:08.495Z,29.13
2019-02-28T16:35:37.408Z,35.53
2019-02-28T16:38:06.337Z,33.13
2019-02-28T16:40:36.470Z,31.20
2019-02-28T16:43:05.301Z,30.17
2019-02-28T16:45:47.993Z,29.93
2019-02-28T16:48:16.755Z,32.43
2019-02-28T16:50:45.563Z,30.00
2019-02-28T16:53:16.026Z,29.10
2019-02-28T16:55:45.315Z,24.43
2019-02-28T16:58:14.087Z,32.37
2019-02-28T17:00:46.142Z,29.83
2019-02-28T17:03:13.378Z,26.83
2019-02-28T17:05:42.089Z,30.90
2019-02-28T17:08:10.796Z,31.10
2019-02-28T17:10:40.286Z,31.50
2019-02-28T17:13:17.520Z,27.00
2019-02-28T17:16:01.624Z,25.63
2019-02-28T17:18:32.046Z,25.80
2019-02-28T17:21:00.754Z,29.23
2019-02-28T17:23:29.654Z,25.07
2019-02-28T17:25:58.445Z,32.83
2019-02-28T17:28:49.836Z,28.43
2019-02-28T17:31:24.947Z,24.73
2019-02-28T17:33:54.332Z,25.40
2019-02-28T17:36:23.101Z,28.77
2019-02-28T17:38:51.866Z,29.20
2019-02-28T17:41:20.853Z,26.50
2019-02-28T17:44:22.543Z,28.30
2019-02-28T17:46:56.968Z,23.17
2019-02-28T17:49:52.871Z,24.73
2019-02-28T17:52:30.519Z,28.17
2019-02-28T17:55:18.128Z,28.80
2019-02-28T17:57:52.344Z,27.53
2019-02-28T18:00:38.525Z,24.50
2019-02-28T18:03:38.071Z,24.40
2019-02-28T18:06:43.794Z,26.07
2019-02-28T18:09:22.097Z,24.37
2019-02-28T18:12:09.291Z,26.20
2019-02-28T18:14:49.620Z,26.63
2019-02-28T18:17:32.375Z,25.30
2019-02-28T18:20:19.390Z,26.17
2019-02-28T18:22:57.145Z,26.10
2019-02-28T18:25:29.565Z,25.90
2019-02-28T18:28:22.612Z,23.30
2019-02-28T18:31:15.575Z,26.40
2019-02-28T18:33:49.526Z,27.90
2019-02-28T18:36:20.826Z,26.53
2019-02-28T18:38:49.466Z,26.60
2019-02-28T18:41:18.170Z,26.17
2019-02-28T18:43:47.029Z,25.30
2019-02-28T18:46:15.685Z,25.97
2019-02-28T18:48:44.330Z,25.77
2019-02-28T18:51:13.073Z,26.67
2019-02-28T18:53:41.705Z,25.07
2019-02-28T18:56:10.431Z,25.57
2019-02-28T18:58:39.162Z,24.90
2019-02-28T19:01:07.883Z,23.63
2019-02-28T19:03:36.422Z,23.90
2019-02-28T19:06:05.251Z,26.37
2019-02-28T19:08:33.826Z,23.70
2019-02-28T19:11:02.554Z,25.07
2019-02-28T19:13:31.223Z,25.63
2019-02-28T19:15:59.869Z,25.20
2019-02-28T19:18:28.487Z,23.43
2019-02-28T19:20:57.195Z,22.87
2019-02-28T19:23:25.941Z,24.80
2019-02-28T19:25:54.587Z,22.53
2019-02-28T19:28:26.154Z,22.13
2019-02-28T19:30:54.800Z,21.13
2019-02-28T19:33:23.569Z,23.87
2019-02-28T19:35:52.281Z,23.33
2019-02-28T19:38:20.852Z,23.30
2019-02-28T19:40:49.418Z,24.20
2019-02-28T19:43:17.980Z,22.87
2019-02-28T19:45:49.878Z,24.87
2019-02-28T19:48:18.587Z,21.93
2019-02-28T19:50:47.275Z,24.10
2019-02-28T19:53:15.934Z,22.33
2019-02-28T19:55:45.137Z,23.33
2019-02-28T19:58:13.737Z,23.73
2019-02-28T20:00:42.509Z,24.87
2019-02-28T20:03:11.220Z,21.73
2019-02-28T20:05:40.061Z,25.03
2019-02-28T20:08:08.810Z,22.90
2019-02-28T20:10:37.510Z,22.90
2019-02-28T20:13:09.658Z,24.30
2019-02-28T20:15:41.763Z,23.37
2019-02-28T20:18:10.450Z,23.17
2019-02-28T20:20:39.199Z,22.17
2019-02-28T20:23:07.978Z,23.87
2019-02-28T20:25:36.617Z,21.93
2019-02-28T20:28:05.349Z,22.83
2019-02-28T20:30:34.166Z,23.07
2019-02-28T20:33:02.926Z,23.63
2019-02-28T20:35:31.638Z,19.07
2019-02-28T20:38:00.290Z,21.40
2019-02-28T20:40:30.788Z,19.37
2019-02-28T20:42:59.536Z,23.93
2019-02-28T20:45:30.406Z,22.57
2019-02-28T20:47:59.213Z,19.90
2019-02-28T20:50:36.563Z,21.20
2019-02-28T20:53:07.648Z,20.97
2019-02-28T20:55:36.382Z,23.27
2019-02-28T20:58:05.220Z,21.00
2019-02-28T21:00:33.842Z,19.87
2019-02-28T21:03:02.500Z,22.23
2019-02-28T21:05:31.159Z,22.10
2019-02-28T21:07:59.849Z,19.60
2019-02-28T21:10:28.584Z,20.73
2019-02-28T21:12:57.283Z,20.53
2019-02-28T21:15:26.006Z,16.40
2019-02-28T21:17:54.854Z,20.50
2019-02-28T21:20:23.569Z,20.03
2019-02-28T21:22:52.174Z,17.60
2019-02-28T21:25:20.910Z,21.80
2019-02-28T21:27:49.633Z,17.47
2019-02-28T21:30:20.453Z,21.50
2019-02-28T21:32:49.206Z,19.10
2019-02-28T21:35:18.425Z,19.87
2019-02-28T21:37:48.338Z,21.00
2019-02-28T21:40:18.566Z,20.80
2019-02-28T21:42:47.290Z,25.60
2019-02-28T21:45:17.894Z,24.30
2019-02-28T21:47:46.586Z,24.10
2019-02-28T21:50:17.071Z,25.57
2019-02-28T21:52:45.985Z,28.40
2019-02-28T21:55:15.911Z,27.03
2019-02-28T21:57:44.723Z,25.77
2019-02-28T22:00:22.222Z,25.53
2019-02-28T22:02:51.014Z,27.10
2019-02-28T22:05:19.748Z,25.83
2019-02-28T22:07:48.438Z,25.77
2019-02-28T22:10:17.658Z,25.70
2019-02-28T22:12:46.358Z,29.53
2019-02-28T22:15:24.995Z,22.77
2019-02-28T22:17:53.638Z,24.77
2019-02-28T22:20:22.360Z,26.97
2019-02-28T22:22:52.721Z,28.50
2019-02-28T22:25:21.348Z,26.80
2019-02-28T22:27:50.068Z,23.93
2019-02-28T22:30:26.998Z,27.50
2019-02-28T22:32:57.358Z,23.30
2019-02-28T22:35:27.642Z,24.60
2019-02-28T22:37:56.318Z,25.60
2019-02-28T22:40:24.986Z,24.93
2019-02-28T22:42:53.629Z,23.77
2019-02-28T22:45:22.267Z,25.77
2019-02-28T22:47:50.916Z,27.47
2019-02-28T22:50:19.672Z,21.80
2019-02-28T22:52:48.331Z,24.37
2019-02-28T22:55:17.148Z,24.90
2019-02-28T22:57:45.782Z,25.13
2019-02-28T23:00:35.335Z,23.90
2019-02-28T23:03:04.338Z,25.20
2019-02-28T23:05:33.238Z,23.60
2019-02-28T23:08:01.867Z,22.40
2019-02-28T23:10:30.588Z,25.30
2019-02-28T23:12:59.305Z,25.90
2019-02-28T23:15:28.006Z,23.53
2019-02-28T23:17:56.715Z,20.33
2019-02-28T23:20:25.308Z,21.40
2019-02-28T23:22:53.882Z,22.63
2019-02-28T23:25:22.462Z,21.00
2019-02-28T23:27:51.185Z,22.90
2019-02-28T23:30:48.320Z,19.47
2019-02-28T23:33:16.994Z,20.13
2019-02-28T23:35:45.783Z,21.37
2019-02-28T23:38:14.413Z,20.03
2019-02-28T23:40:43.157Z,20.50
2019-02-28T23:43:11.726Z,21.27
2019-02-28T23:45:40.290Z,19.07
2019-02-28T23:48:08.948Z,20.67
2019-02-28T23:50:37.520Z,18.30
2019-02-28T23:53:06.281Z,19.70
2019-02-28T23:55:34.932Z,18.97
2019-02-28T23:58:03.551Z,19.27
